Time;durP1;ratioP1;P1;durP2;ratioP2;P2;SDS_P1;SDS_P2;PMS_P1;PMS_P2;Temp;Humidity;BMP_temperature;BMP_pressure;BME280_temperature;BME280_humidity;BME280_pressure;Samples;Min_cycle;Max_cycle;Signal;HPM_P1;HPM_P2
2023/06/06 00:00:59;;;;;;;4.10;3.80;;;;;;;16.64;68.77;95642.34;6107700;23;20151;-79
2023/06/06 00:03:25;;;;;;;4.25;3.85;;;;;;;16.62;69.19;95639.13;6133297;23;20187;-80
2023/06/06 00:05:50;;;;;;;4.45;3.70;;;;;;;16.59;69.41;95637.66;6156426;23;20632;-79
2023/06/06 00:08:19;;;;;;;5.32;4.00;;;;;;;16.53;69.25;95635.78;6157898;23;20151;-80
2023/06/06 00:10:45;;;;;;;4.40;4.00;;;;;;;16.49;69.26;95634.50;6156249;23;20190;-80
2023/06/06 00:13:13;;;;;;;4.32;3.92;;;;;;;16.58;68.98;95643.06;6157388;23;20194;-80
2023/06/06 00:15:40;;;;;;;6.05;4.00;;;;;;;16.55;69.08;95638.22;6133479;23;20166;-79
2023/06/06 00:18:06;;;;;;;3.88;3.55;;;;;;;16.52;69.18;95636.78;6132757;23;20166;-79
2023/06/06 00:20:32;;;;;;;5.18;3.90;;;;;;;16.40;69.08;95640.81;6108510;23;20209;-79
2023/06/06 00:22:58;;;;;;;4.15;3.75;;;;;;;16.31;69.56;95641.91;6157284;23;20262;-80
2023/06/06 00:25:23;;;;;;;4.60;4.20;;;;;;;16.30;69.52;95637.66;6157923;23;20162;-79
2023/06/06 00:27:48;;;;;;;4.97;4.22;;;;;;;16.29;69.53;95643.91;6131690;23;20234;-80
2023/06/06 00:30:14;;;;;;;3.88;3.50;;;;;;;16.26;69.73;95647.72;6108535;23;20186;-81
2023/06/06 00:32:39;;;;;;;5.30;3.97;;;;;;;16.26;70.11;95639.84;6133671;23;20179;-80
2023/06/06 00:35:05;;;;;;;4.63;3.92;;;;;;;16.23;69.89;95637.56;6134690;23;20174;-80
2023/06/06 00:37:30;;;;;;;5.20;3.30;;;;;;;16.26;70.15;95641.66;6159921;23;20166;-79
2023/06/06 00:39:55;;;;;;;4.47;3.72;;;;;;;16.19;69.94;95638.13;6135092;23;20226;-81
2023/06/06 00:42:21;;;;;;;5.20;4.28;;;;;;;16.14;70.20;95642.06;6134396;23;20194;-80
2023/06/06 00:44:46;;;;;;;4.93;4.40;;;;;;;16.10;71.07;95643.44;6158938;23;20167;-80
2023/06/06 00:47:12;;;;;;;4.65;4.10;;;;;;;16.11;70.92;95647.69;6135115;23;20163;-81
2023/06/06 00:49:37;;;;;;;4.05;3.75;;;;;;;16.04;71.44;95636.28;6134717;23;20160;-80
2023/06/06 00:52:03;;;;;;;6.38;3.78;;;;;;;16.03;72.01;95634.66;6135738;23;20175;-81
2023/06/06 00:54:30;;;;;;;6.90;4.20;;;;;;;15.94;71.67;95640.16;6161863;23;20162;-80
2023/06/06 00:56:55;;;;;;;5.85;3.95;;;;;;;15.99;72.14;95627.34;6133810;23;20166;-80
2023/06/06 00:59:23;;;;;;;4.28;3.78;;;;;;;15.92;71.73;95632.50;6159805;23;20152;-78
2023/06/06 01:01:48;;;;;;;6.88;3.50;;;;;;;15.84;71.98;95629.94;6134352;23;20620;-79
2023/06/06 01:04:15;;;;;;;4.53;3.70;;;;;;;15.88;72.34;95630.41;6133972;23;20183;-78
2023/06/06 01:06:41;;;;;;;6.18;4.45;;;;;;;15.80;71.80;95637.31;6132510;23;20163;-77
2023/06/06 01:09:08;;;;;;;5.45;3.72;;;;;;;15.85;72.38;95636.81;6133229;23;20179;-80
2023/06/06 01:11:52;;;;;;;5.15;4.65;;;;;;;15.76;72.19;95630.84;6133689;23;20183;-80
2023/06/06 01:14:25;;;;;;;4.07;3.60;;;;;;;15.67;72.73;95637.13;6158432;23;20257;-78
2023/06/06 01:16:52;;;;;;;3.55;3.25;;;;;;;15.77;72.68;95629.84;6133037;23;20158;-79
2023/06/06 01:19:19;;;;;;;4.28;3.47;;;;;;;15.58;73.23;95628.50;6158933;23;20178;-80
2023/06/06 01:21:45;;;;;;;4.90;3.80;;;;;;;15.70;72.80;95628.91;6158615;23;20147;-80
2023/06/06 01:24:12;;;;;;;4.28;3.22;;;;;;;15.70;72.57;95620.25;6135712;23;20203;-79
2023/06/06 01:26:37;;;;;;;3.70;3.30;;;;;;;15.66;72.47;95625.03;6134427;23;20509;-78
2023/06/06 01:29:02;;;;;;;3.78;3.40;;;;;;;15.60;72.46;95620.47;6160249;23;20159;-79
2023/06/06 01:31:32;;;;;;;3.22;2.92;;;;;;;15.67;72.41;95624.03;6158788;23;20182;-78
2023/06/06 01:34:01;;;;;;;3.35;3.15;;;;;;;15.57;72.05;95624.25;6134074;23;20179;-79
2023/06/06 01:36:33;;;;;;;4.63;3.70;;;;;;;15.64;72.76;95626.22;6158939;23;20174;-80
2023/06/06 01:39:12;;;;;;;3.90;3.50;;;;;;;15.59;72.45;95621.47;6132546;23;20152;-79
2023/06/06 01:41:38;;;;;;;4.95;3.53;;;;;;;15.56;73.11;95627.88;6133492;23;20156;-80
2023/06/06 01:44:06;;;;;;;3.80;3.40;;;;;;;15.47;72.43;95628.94;6109644;23;20987;-79
2023/06/06 01:46:32;;;;;;;8.77;4.00;;;;;;;15.46;72.58;95624.69;6132404;23;20182;-80
2023/06/06 01:48:57;;;;;;;3.78;3.40;;;;;;;15.37;72.86;95624.91;6157671;23;20590;-80
2023/06/06 01:51:29;;;;;;;3.95;3.53;;;;;;;15.43;72.71;95622.41;6133720;23;20175;-79
2023/06/06 01:53:56;;;;;;;3.72;3.22;;;;;;;15.42;72.91;95628.63;6134139;23;20205;-80
2023/06/06 01:56:23;;;;;;;4.63;3.65;;;;;;;15.35;72.75;95630.31;6157055;23;20489;-79
2023/06/06 01:58:48;;;;;;;4.03;3.53;;;;;;;15.34;72.80;95631.31;6133928;23;20159;-79
2023/06/06 02:01:14;;;;;;;4.18;3.60;;;;;;;15.36;72.70;95620.66;6108896;23;20245;-80
2023/06/06 02:03:39;;;;;;;3.40;3.10;;;;;;;15.34;73.07;95628.69;6108534;23;20183;-79
2023/06/06 02:06:05;;;;;;;5.00;3.50;;;;;;;15.28;73.53;95624.97;6130188;23;20167;-79
2023/06/06 02:08:30;;;;;;;3.65;3.35;;;;;;;15.28;73.57;95627.59;6156269;23;20179;-79
2023/06/06 02:10:55;;;;;;;3.85;3.55;;;;;;;15.25;74.04;95620.09;6156355;23;20850;-80
2023/06/06 02:13:21;;;;;;;3.80;3.42;;;;;;;15.22;73.13;95624.84;6157455;23;20171;-80
2023/06/06 02:15:46;;;;;;;3.60;3.20;;;;;;;15.20;73.55;95626.84;6131988;23;20159;-80
2023/06/06 02:18:11;;;;;;;5.15;3.50;;;;;;;15.23;73.25;95631.72;6131494;23;20159;-79
2023/06/06 02:20:37;;;;;;;3.70;3.25;;;;;;;15.23;73.15;95631.72;6132914;23;20152;-79
2023/06/06 02:23:02;;;;;;;4.13;3.42;;;;;;;15.20;73.13;95642.53;6131921;23;20662;-79
2023/06/06 02:25:28;;;;;;;3.88;3.10;;;;;;;15.15;72.85;95635.19;6130807;23;20216;-79
2023/06/06 02:27:53;;;;;;;3.87;3.47;;;;;;;15.16;72.93;95642.06;6130583;23;20182;-79
2023/06/06 02:30:19;;;;;;;3.53;3.22;;;;;;;15.08;72.54;95638.69;6157596;23;20258;-79
2023/06/06 02:32:45;;;;;;;4.47;3.27;;;;;;;15.09;72.34;95635.06;6156775;23;20186;-80
2023/06/06 02:35:10;;;;;;;3.53;3.13;;;;;;;14.97;72.73;95637.28;6158933;23;20162;-80
2023/06/06 02:37:36;;;;;;;3.30;3.00;;;;;;;15.04;72.56;95635.59;6156058;23;20159;-79
2023/06/06 02:40:08;;;;;;;3.60;3.22;;;;;;;15.13;72.24;95639.78;6156969;23;20159;-78
2023/06/06 02:42:33;;;;;;;3.70;3.40;;;;;;;15.08;72.85;95636.88;6132854;23;20182;-78
2023/06/06 02:45:00;;;;;;;3.58;3.28;;;;;;;15.08;72.36;95638.69;6131972;23;20161;-79
2023/06/06 02:47:25;;;;;;;5.13;3.15;;;;;;;15.05;72.89;95641.66;6131987;23;20167;-78
2023/06/06 02:49:50;;;;;;;3.70;3.30;;;;;;;15.00;73.06;95639.53;6156109;23;20506;-79
2023/06/06 02:52:15;;;;;;;6.47;3.15;;;;;;;15.03;72.70;95636.59;6131267;23;20234;-78
2023/06/06 02:54:41;;;;;;;3.63;3.33;;;;;;;15.08;72.43;95646.53;6156946;23;20151;-79
2023/06/06 02:57:06;;;;;;;3.25;2.95;;;;;;;15.00;72.47;95648.19;6129924;23;20163;-80
2023/06/06 02:59:31;;;;;;;3.92;2.75;;;;;;;15.04;72.75;95642.63;6130942;23;20174;-79
2023/06/06 03:01:57;;;;;;;3.70;3.40;;;;;;;15.02;72.47;95651.47;6131079;23;20155;-79
2023/06/06 03:04:22;;;;;;;4.05;3.30;;;;;;;15.05;72.34;95649.50;6130332;23;20175;-80
2023/06/06 03:06:48;;;;;;;3.63;3.30;;;;;;;14.92;71.86;95648.22;6131480;23;20166;-80
2023/06/06 03:09:14;;;;;;;3.15;2.85;;;;;;;15.00;72.00;95650.81;6133516;23;20162;-80
2023/06/06 03:11:39;;;;;;;4.03;2.97;;;;;;;14.96;72.19;95652.16;6132318;23;20183;-80
2023/06/06 03:14:04;;;;;;;4.43;3.43;;;;;;;14.97;72.32;95648.53;6159222;23;20190;-80
2023/06/06 03:16:30;;;;;;;3.35;2.85;;;;;;;14.92;72.20;95653.47;6130350;23;20163;-80
2023/06/06 03:18:55;;;;;;;3.70;3.40;;;;;;;14.98;72.21;95646.75;6130868;23;20695;-80
2023/06/06 03:21:21;;;;;;;3.53;3.22;;;;;;;14.97;72.56;95650.34;6106519;23;20158;-79
2023/06/06 03:23:50;;;;;;;3.50;2.87;;;;;;;14.96;72.03;95652.16;6130551;23;20273;-78
2023/06/06 03:26:15;;;;;;;3.10;2.80;;;;;;;15.02;71.94;95654.09;6130252;23;20163;-79
2023/06/06 03:28:41;;;;;;;3.20;2.70;;;;;;;15.00;71.88;95653.41;6155367;23;20229;-78
2023/06/06 03:31:06;;;;;;;3.87;3.30;;;;;;;15.04;72.03;95655.72;6130331;23;20179;-80
2023/06/06 03:33:32;;;;;;;3.63;2.80;;;;;;;15.07;71.72;95668.44;6106481;23;20182;-80
2023/06/06 03:35:58;;;;;;;3.90;3.28;;;;;;;15.04;71.84;95660.94;6156150;23;20155;-79
2023/06/06 03:38:23;;;;;;;3.70;3.28;;;;;;;15.06;71.41;95666.81;6132168;23;20155;-80
2023/06/06 03:40:48;;;;;;;3.38;3.08;;;;;;;15.13;71.42;95665.13;6157300;23;20151;-79
2023/06/06 03:43:14;;;;;;;3.30;3.00;;;;;;;15.17;71.38;95664.59;6156406;23;20179;-80
2023/06/06 03:45:39;;;;;;;3.13;2.83;;;;;;;15.20;71.15;95664.28;6131357;23;20163;-79
2023/06/06 03:48:04;;;;;;;7.65;3.10;;;;;;;15.19;71.24;95673.09;6155116;23;20163;-80
2023/06/06 03:50:30;;;;;;;2.95;2.67;;;;;;;15.34;70.63;95667.94;6155612;23;20183;-80
2023/06/06 03:52:55;;;;;;;3.20;2.90;;;;;;;16.06;68.26;95672.78;6132209;23;20187;-79
2023/06/06 03:55:20;;;;;;;3.55;3.13;;;;;;;16.83;64.54;95670.66;6156867;23;20155;-80
2023/06/06 03:57:45;;;;;;;3.10;2.90;;;;;;;17.48;62.18;95677.63;6156657;23;20202;-79
2023/06/06 04:00:13;;;;;;;3.95;3.17;;;;;;;17.89;60.18;95676.22;6154946;23;20174;-80
2023/06/06 04:02:38;;;;;;;3.10;2.80;;;;;;;18.75;56.87;95682.09;6156069;23;20184;-79
2023/06/06 04:05:05;;;;;;;3.25;2.80;;;;;;;18.96;56.48;95679.34;6131743;23;20253;-80
2023/06/06 04:07:31;;;;;;;2.72;2.53;;;;;;;19.19;55.35;95676.41;6155498;23;20217;-79
2023/06/06 04:09:56;;;;;;;3.22;2.53;;;;;;;19.75;53.81;95682.22;6158827;23;20160;-80
2023/06/06 04:12:22;;;;;;;3.13;2.80;;;;;;;20.35;51.22;95687.50;6108011;23;20222;-79
2023/06/06 04:14:47;;;;;;;2.50;2.30;;;;;;;20.98;49.26;95686.97;6157785;23;20193;-80
2023/06/06 04:17:13;;;;;;;2.85;2.65;;;;;;;20.51;49.24;95686.28;6154908;23;20234;-80
2023/06/06 04:19:38;;;;;;;2.88;2.67;;;;;;;20.01;50.23;95686.69;6132159;23;20209;-80
2023/06/06 04:22:05;;;;;;;3.38;2.97;;;;;;;20.94;49.28;95691.84;6132224;23;20482;-78
2023/06/06 04:24:30;;;;;;;2.55;2.35;;;;;;;21.23;47.67;95695.00;6135024;23;20151;-79
2023/06/06 04:26:55;;;;;;;2.53;2.33;;;;;;;20.84;48.23;95694.09;6131675;23;20178;-79
2023/06/06 04:29:21;;;;;;;2.95;2.67;;;;;;;21.86;46.16;95700.34;6131727;23;20159;-79
2023/06/06 04:31:46;;;;;;;4.13;2.92;;;;;;;22.46;44.83;95692.78;6106833;23;20194;-79
2023/06/06 04:34:12;;;;;;;2.78;2.58;;;;;;;21.94;45.37;95700.09;6156812;23;20175;-79
2023/06/06 04:36:40;;;;;;;3.47;2.38;;;;;;;23.03;42.82;95694.22;6157239;23;20478;-80
2023/06/06 04:39:07;;;;;;;6.03;2.78;;;;;;;22.75;43.08;95699.19;6160091;23;20178;-79
2023/06/06 04:41:33;;;;;;;2.45;2.25;;;;;;;23.24;43.22;95700.13;6132484;23;20165;-79
2023/06/06 04:44:02;;;;;;;4.53;2.58;;;;;;;23.62;41.24;95694.53;6104621;23;20179;-79
2023/06/06 04:46:29;;;;;;;3.08;2.50;;;;;;;24.32;39.32;95693.91;6127738;23;20243;-80
2023/06/06 04:48:55;;;;;;;2.97;2.70;;;;;;;24.73;39.39;95698.28;6127822;23;20178;-80
2023/06/06 04:51:32;;;;;;;3.08;2.67;;;;;;;25.32;38.36;95699.81;6154299;23;20175;-80
2023/06/06 04:53:59;;;;;;;5.15;2.90;;;;;;;24.50;39.08;95696.44;6127173;23;20183;-79
2023/06/06 04:56:28;;;;;;;3.00;2.47;;;;;;;25.27;37.61;95704.22;6127469;23;20189;-80
2023/06/06 04:58:57;;;;;;;2.47;2.08;;;;;;;26.32;36.07;95698.38;6153385;23;20160;-80
2023/06/06 05:01:23;;;;;;;4.15;2.50;;;;;;;24.91;37.61;95700.78;6128298;23;20813;-79
2023/06/06 05:03:49;;;;;;;2.65;2.45;;;;;;;26.03;36.07;95702.19;6128925;23;20221;-79
2023/06/06 05:06:14;;;;;;;2.58;2.38;;;;;;;27.92;32.55;95706.38;6152897;23;20155;-79
2023/06/06 05:08:41;;;;;;;3.53;2.53;;;;;;;27.32;34.00;95705.44;6128393;23;20586;-80
2023/06/06 05:11:07;;;;;;;2.78;2.58;;;;;;;27.84;33.05;95714.81;6153052;23;20609;-80
2023/06/06 05:13:33;;;;;;;2.35;2.15;;;;;;;28.70;31.67;95706.72;6128171;23;20180;-79
2023/06/06 05:15:59;;;;;;;2.50;2.30;;;;;;;28.03;32.71;95710.72;6132134;23;20162;-78
2023/06/06 05:18:24;;;;;;;3.03;2.70;;;;;;;28.05;32.19;95710.47;6162792;23;20163;-80
2023/06/06 05:20:50;;;;;;;2.80;2.60;;;;;;;27.52;32.47;95718.19;6164640;23;20597;-80
2023/06/06 05:23:15;;;;;;;3.72;2.67;;;;;;;27.94;32.03;95718.41;6164642;23;20175;-78
2023/06/06 05:25:41;;;;;;;3.45;2.90;;;;;;;27.09;33.72;95716.34;6160386;23;20610;-78
2023/06/06 05:28:06;;;;;;;2.78;2.58;;;;;;;28.05;32.18;95724.63;6135982;23;20179;-81
2023/06/06 05:30:31;;;;;;;3.88;2.85;;;;;;;27.82;31.95;95728.41;6168209;23;20175;-81
2023/06/06 05:32:57;;;;;;;2.53;2.33;;;;;;;27.71;31.98;95729.34;6165283;23;20692;-81
2023/06/06 05:35:22;;;;;;;3.20;2.90;;;;;;;27.62;31.65;95731.63;6155508;23;20159;-81
2023/06/06 05:37:48;;;;;;;3.85;2.83;;;;;;;27.23;32.94;95730.91;6130385;23;20238;-79
2023/06/06 05:40:14;;;;;;;4.25;2.95;;;;;;;28.05;30.88;95729.16;6155356;23;20186;-81
2023/06/06 05:42:39;;;;;;;2.92;2.72;;;;;;;27.89;32.35;95733.53;6156062;23;20171;-81
2023/06/06 05:45:05;;;;;;;4.07;2.90;;;;;;;26.81;33.71;95730.59;6155573;23;20170;-80
2023/06/06 05:47:30;;;;;;;3.55;2.40;;;;;;;27.45;32.98;95738.09;6154560;23;20186;-80
2023/06/06 05:49:55;;;;;;;3.20;3.00;;;;;;;27.76;33.06;95734.75;6130286;23;20225;-78
2023/06/06 05:52:21;;;;;;;3.03;2.75;;;;;;;26.31;35.03;95738.56;6130362;23;20202;-80
2023/06/06 05:54:46;;;;;;;2.80;2.60;;;;;;;26.93;33.39;95731.28;6130750;23;20512;-81
2023/06/06 05:57:22;;;;;;;4.93;2.70;;;;;;;27.63;32.19;95743.91;6150785;23;20259;-80
2023/06/06 05:59:48;;;;;;;3.65;3.05;;;;;;;26.55;33.27;95732.06;6155274;23;20246;-82
2023/06/06 06:02:13;;;;;;;3.47;3.17;;;;;;;24.76;37.38;95738.47;6155351;23;20515;-82
2023/06/06 06:04:40;;;;;;;2.90;2.60;;;;;;;25.16;36.31;95736.94;6130453;23;20210;-82
2023/06/06 06:07:06;;;;;;;3.08;2.78;;;;;;;25.16;37.08;95737.75;6129666;23;20150;-81
2023/06/06 06:09:32;;;;;;;3.88;3.13;;;;;;;24.05;37.84;95735.94;6151794;23;20163;-80
2023/06/06 06:11:57;;;;;;;3.53;3.13;;;;;;;23.57;38.73;95742.06;6128200;23;20179;-81
2023/06/06 06:14:22;;;;;;;3.33;3.00;;;;;;;22.46;41.12;95743.84;6105022;23;20275;-81
2023/06/06 06:16:48;;;;;;;3.65;3.35;;;;;;;23.15;39.28;95744.63;6153658;23;20166;-81
2023/06/06 06:19:13;;;;;;;5.40;3.58;;;;;;;23.72;39.06;95743.31;6128822;23;20355;-82
2023/06/06 06:21:38;;;;;;;3.78;2.95;;;;;;;23.16;39.68;95749.72;6128767;23;20162;-80
2023/06/06 06:24:04;;;;;;;4.35;3.45;;;;;;;22.37;41.70;95747.81;6152638;23;20429;-81
2023/06/06 06:26:30;;;;;;;5.53;3.33;;;;;;;22.91;40.86;95756.09;6153211;23;20165;-80
2023/06/06 06:28:55;;;;;;;3.20;2.85;;;;;;;22.65;41.29;95750.00;6155370;23;20171;-81
2023/06/06 06:31:21;;;;;;;3.60;3.25;;;;;;;22.32;42.59;95747.63;6152957;23;20175;-81
2023/06/06 06:33:46;;;;;;;5.40;3.33;;;;;;;22.44;42.59;95751.22;6152961;23;20894;-80
2023/06/06 06:36:11;;;;;;;3.25;2.95;;;;;;;23.53;39.84;95764.75;6129110;23;20151;-81
2023/06/06 06:38:37;;;;;;;3.47;3.17;;;;;;;24.18;38.47;95757.75;6128820;23;20160;-79
2023/06/06 06:41:03;;;;;;;4.43;3.28;;;;;;;25.39;36.82;95758.16;6154100;23;20152;-81
2023/06/06 06:43:28;;;;;;;3.53;3.00;;;;;;;26.93;34.58;95771.25;6137577;23;20210;-80
2023/06/06 06:45:53;;;;;;;3.28;3.00;;;;;;;26.96;34.54;95772.63;6137661;23;20159;-81
2023/06/06 06:48:19;;;;;;;3.17;2.92;;;;;;;25.90;35.27;95780.47;6138719;23;20155;-81
2023/06/06 06:50:45;;;;;;;4.18;3.38;;;;;;;25.33;35.71;95777.69;6138234;23;20704;-80
2023/06/06 06:53:12;;;;;;;4.53;3.97;;;;;;;24.82;37.48;95776.56;6139071;23;20186;-80
2023/06/06 06:55:38;;;;;;;4.70;3.55;;;;;;;25.70;35.58;95775.50;6163318;23;20213;-79
2023/06/06 06:58:05;;;;;;;5.60;3.20;;;;;;;26.78;34.31;95773.72;6137333;23;20155;-79
2023/06/06 07:00:31;;;;;;;4.32;3.72;;;;;;;26.63;34.36;95782.25;6138509;23;20155;-79
2023/06/06 07:02:58;;;;;;;4.95;3.38;;;;;;;25.63;34.76;95780.97;6139029;23;20179;-80
2023/06/06 07:05:23;;;;;;;4.68;3.60;;;;;;;25.21;36.80;95779.56;6138469;23;20388;-78
2023/06/06 07:07:52;;;;;;;5.60;3.13;;;;;;;26.53;35.02;95779.44;6131551;23;20158;-80
2023/06/06 07:10:19;;;;;;;3.42;2.97;;;;;;;27.02;33.78;95775.09;6129513;23;20162;-81
2023/06/06 07:12:51;;;;;;;4.22;3.30;;;;;;;28.34;31.05;95777.78;6129823;23;20199;-81
2023/06/06 07:15:17;;;;;;;4.55;3.08;;;;;;;27.32;31.26;95787.28;6130474;23;20156;-81
2023/06/06 07:17:46;;;;;;;3.85;3.55;;;;;;;26.62;32.77;95788.66;6128813;23;20191;-81
2023/06/06 07:20:11;;;;;;;3.30;3.00;;;;;;;27.57;31.71;95786.81;6153897;23;20743;-82
2023/06/06 07:22:37;;;;;;;3.53;3.22;;;;;;;27.28;31.55;95786.94;6105238;23;20186;-81
2023/06/06 07:25:03;;;;;;;4.50;3.40;;;;;;;27.51;32.29;95787.78;6154984;23;20166;-81
2023/06/06 07:27:33;;;;;;;4.93;3.13;;;;;;;26.66;32.51;95788.94;6153148;23;20170;-82
2023/06/06 07:29:59;;;;;;;3.28;2.97;;;;;;;27.18;32.19;95781.50;6129522;23;20155;-81
2023/06/06 07:32:24;;;;;;;4.70;3.80;;;;;;;27.38;31.34;95791.59;6154434;23;20577;-81
2023/06/06 07:34:50;;;;;;;3.65;3.30;;;;;;;26.66;31.79;95789.75;6129322;23;20165;-80
2023/06/06 07:37:15;;;;;;;3.25;2.95;;;;;;;27.43;30.19;95789.03;6127847;23;20246;-81
2023/06/06 07:39:42;;;;;;;4.68;3.20;;;;;;;26.45;31.94;95785.16;6153685;23;20155;-81
2023/06/06 07:42:07;;;;;;;3.67;3.30;;;;;;;25.81;32.06;95782.69;6152793;23;20174;-80
2023/06/06 07:44:33;;;;;;;4.93;3.08;;;;;;;26.34;32.32;95781.50;6128103;23;20653;-81
2023/06/06 07:46:58;;;;;;;4.13;3.42;;;;;;;25.53;31.85;95782.59;6103998;23;20194;-79
2023/06/06 07:49:23;;;;;;;3.67;2.90;;;;;;;24.98;33.28;95773.19;6128760;23;20163;-81
2023/06/06 07:51:48;;;;;;;5.30;3.20;;;;;;;25.32;33.00;95774.22;6128646;23;20187;-80
2023/06/06 07:54:14;;;;;;;3.38;2.78;;;;;;;25.37;32.30;95769.03;6161419;23;20179;-80
2023/06/06 07:56:39;;;;;;;4.43;3.08;;;;;;;25.47;32.43;95773.75;6153375;23;20156;-81
2023/06/06 07:59:04;;;;;;;3.45;3.15;;;;;;;25.62;31.88;95773.22;6130259;23;20587;-80
2023/06/06 08:01:31;;;;;;;3.58;3.28;;;;;;;25.70;31.98;95765.72;6128241;23;20170;-79
2023/06/06 08:03:56;;;;;;;3.95;3.08;;;;;;;25.17;32.33;95770.44;6128874;23;20182;-80
2023/06/06 08:06:24;;;;;;;4.78;3.00;;;;;;;25.91;30.86;95771.44;6104108;23;20214;-81
2023/06/06 08:08:51;;;;;;;3.53;2.90;;;;;;;25.30;32.06;95770.19;6130983;23;20150;-80
2023/06/06 08:11:17;;;;;;;3.40;3.03;;;;;;;25.34;31.00;95771.34;6105990;23;20183;-80
2023/06/06 08:13:43;;;;;;;5.38;2.80;;;;;;;25.50;31.96;95775.91;6130250;23;20259;-80
2023/06/06 08:16:08;;;;;;;5.35;3.50;;;;;;;25.48;31.24;95782.53;6130190;23;20234;-81
2023/06/06 08:18:33;;;;;;;3.40;2.75;;;;;;;24.81;31.97;95774.94;6131660;23;20136;-81
2023/06/06 08:20:59;;;;;;;4.93;3.20;;;;;;;24.27;33.06;95784.78;6106179;23;20238;-80
2023/06/06 08:23:24;;;;;;;4.07;3.20;;;;;;;24.75;31.86;95778.53;6154996;23;20185;-81
2023/06/06 08:25:55;;;;;;;3.75;3.17;;;;;;;24.02;32.66;95774.31;6132539;23;20174;-81
2023/06/06 08:28:21;;;;;;;3.90;3.10;;;;;;;24.60;32.30;95775.53;6153904;23;20250;-81
2023/06/06 08:30:46;;;;;;;6.10;3.47;;;;;;;24.44;33.14;95775.16;6128954;23;20264;-80
2023/06/06 08:33:11;;;;;;;4.95;3.45;;;;;;;23.76;32.83;95775.50;6105725;23;20185;-80
2023/06/06 08:35:37;;;;;;;3.08;2.83;;;;;;;24.10;33.31;95771.34;6130395;23;20151;-80
2023/06/06 08:38:02;;;;;;;3.40;3.10;;;;;;;23.62;34.21;95784.66;6131548;23;20170;-81
2023/06/06 08:40:27;;;;;;;4.38;3.05;;;;;;;23.01;36.52;95778.38;6130804;23;20174;-80
2023/06/06 08:42:53;;;;;;;4.45;3.25;;;;;;;23.80;33.99;95781.97;6130903;23;20190;-81
2023/06/06 08:45:21;;;;;;;4.97;3.72;;;;;;;23.82;33.89;95779.09;6156064;23;20532;-79
2023/06/06 08:47:48;;;;;;;3.60;3.28;;;;;;;23.48;34.49;95783.97;6129947;23;20163;-81
2023/06/06 08:50:14;;;;;;;4.93;3.60;;;;;;;23.31;35.35;95788.25;6106836;23;20163;-81
2023/06/06 08:52:42;;;;;;;6.70;3.53;;;;;;;23.13;33.53;95773.97;6124708;23;20747;-79
2023/06/06 08:55:08;;;;;;;6.63;3.67;;;;;;;23.24;35.28;95783.06;6107878;23;20164;-82
2023/06/06 08:57:34;;;;;;;3.80;3.42;;;;;;;23.03;34.80;95786.09;6132809;23;20163;-80
2023/06/06 09:00:10;;;;;;;4.90;3.50;;;;;;;23.58;33.53;95784.25;6109970;23;20163;-78
2023/06/06 09:02:42;;;;;;;5.30;3.40;;;;;;;23.95;33.61;95794.84;6132853;23;20179;-79
2023/06/06 09:05:09;;;;;;;6.35;3.13;;;;;;;24.32;32.19;95782.28;6133296;23;20143;-79
2023/06/06 09:07:34;;;;;;;6.70;3.25;;;;;;;24.26;34.15;95785.81;6131902;23;20594;-80
2023/06/06 09:09:59;;;;;;;5.82;3.50;;;;;;;23.64;35.06;95788.69;6134031;23;20171;-79
2023/06/06 09:12:25;;;;;;;3.88;3.40;;;;;;;23.83;35.04;95786.81;6135630;23;20262;-80
2023/06/06 09:14:50;;;;;;;5.13;3.35;;;;;;;24.32;34.62;95778.81;6134717;23;20159;-79
2023/06/06 09:17:16;;;;;;;5.00;3.40;;;;;;;24.37;33.68;95785.06;6158289;23;20641;-81
2023/06/06 09:19:44;;;;;;;5.25;3.55;;;;;;;24.29;34.68;95780.03;6158125;23;20606;-81
2023/06/06 09:22:10;;;;;;;5.32;3.33;;;;;;;24.36;32.95;95788.75;6132950;23;20151;-81
2023/06/06 09:24:41;;;;;;;5.75;3.45;;;;;;;24.08;32.18;95783.22;6132052;23;20167;-81
2023/06/06 09:27:07;;;;;;;7.18;3.47;;;;;;;23.93;33.38;95791.59;6133125;23;20163;-80
2023/06/06 09:29:38;;;;;;;4.75;3.17;;;;;;;24.15;34.00;95782.09;6134128;23;20148;-80
2023/06/06 09:32:06;;;;;;;4.78;3.30;;;;;;;24.26;33.75;95780.50;6132892;23;20167;-80
2023/06/06 09:34:31;;;;;;;4.15;3.05;;;;;;;24.60;33.64;95784.28;6134616;23;20216;-81
2023/06/06 09:36:59;;;;;;;6.75;3.45;;;;;;;24.65;33.27;95776.47;6107795;23;20159;-79
2023/06/06 09:39:25;;;;;;;7.13;3.50;;;;;;;25.09;32.44;95788.38;6158526;23;20155;-81
2023/06/06 09:41:50;;;;;;;5.43;4.00;;;;;;;24.31;31.42;95783.31;6158143;23;20190;-80
2023/06/06 09:44:20;;;;;;;5.55;4.18;;;;;;;24.89;31.77;95779.91;6157970;23;20262;-81
2023/06/06 09:46:45;;;;;;;6.78;3.33;;;;;;;23.54;33.59;95782.28;6132856;23;20164;-81
2023/06/06 09:49:12;;;;;;;5.65;3.95;;;;;;;24.06;34.58;95780.00;6135004;23;20198;-80
2023/06/06 09:51:44;;;;;;;7.00;3.85;;;;;;;23.95;34.60;95785.03;6160732;23;20179;-81
2023/06/06 09:54:10;;;;;;;8.38;4.22;;;;;;;24.31;34.82;95783.31;6134941;23;20179;-81
2023/06/06 09:56:39;;;;;;;4.57;3.50;;;;;;;24.63;33.60;95785.66;6158000;23;20671;-81
2023/06/06 09:59:06;;;;;;;4.65;3.88;;;;;;;24.65;35.10;95780.94;6157277;23;20202;-80
2023/06/06 10:01:32;;;;;;;4.25;3.85;;;;;;;25.19;32.67;95781.66;6133187;23;20154;-80
2023/06/06 10:03:58;;;;;;;4.93;4.35;;;;;;;24.99;33.12;95774.81;6133093;23;20267;-79
2023/06/06 10:06:33;;;;;;;5.50;3.50;;;;;;;24.90;32.06;95781.50;6106300;23;20152;-81
2023/06/06 10:08:59;;;;;;;5.45;3.72;;;;;;;24.08;33.70;95778.72;6135001;23;20146;-81
2023/06/06 10:11:26;;;;;;;4.95;3.80;;;;;;;24.01;33.62;95778.00;6160659;23;20175;-81
2023/06/06 10:13:53;;;;;;;3.85;3.50;;;;;;;23.83;34.16;95781.53;6110181;23;20175;-80
2023/06/06 10:16:19;;;;;;;5.18;3.92;;;;;;;23.71;33.31;95780.66;6160729;23;20227;-81
2023/06/06 10:18:46;;;;;;;5.47;3.90;;;;;;;23.69;33.61;95769.50;6108520;23;20552;-80
2023/06/06 10:21:14;;;;;;;4.00;3.70;;;;;;;23.19;34.92;95767.00;6130662;23;20159;-80
2023/06/06 10:23:39;;;;;;;5.30;3.90;;;;;;;23.15;35.35;95768.47;6157343;23;20178;-81
2023/06/06 10:26:05;;;;;;;4.70;3.95;;;;;;;23.64;35.34;95766.69;6129951;23;20155;-81
2023/06/06 10:28:36;;;;;;;4.15;3.75;;;;;;;24.03;34.25;95765.34;6154085;23;20222;-81
2023/06/06 10:31:12;;;;;;;6.07;4.10;;;;;;;23.77;32.82;95757.75;6130487;23;20182;-81
2023/06/06 10:33:48;;;;;;;5.05;3.90;;;;;;;24.40;33.18;95763.38;6155019;23;20190;-80
2023/06/06 10:36:18;;;;;;;5.70;4.00;;;;;;;24.16;33.41;95764.34;6130077;23;20163;-79
2023/06/06 10:39:17;;;;;;;5.32;4.82;;;;;;;24.85;32.79;95760.16;6154333;23;20536;-82
2023/06/06 10:42:18;;;;;;;5.78;4.25;;;;;;;24.55;33.33;95765.56;6131766;23;20537;-80
2023/06/06 10:44:44;;;;;;;4.20;3.90;;;;;;;24.88;33.85;95762.34;6015252;23;20169;-80
2023/06/06 10:47:33;;;;;;;4.37;3.97;;;;;;;25.26;32.38;95763.72;6037823;23;20536;-80
2023/06/06 10:50:08;;;;;;;4.65;4.15;;;;;;;24.86;29.55;95759.13;6015122;23;20741;-81
2023/06/06 10:52:46;;;;;;;5.47;4.10;;;;;;;25.18;32.40;95756.94;6013144;23;20197;-80
2023/06/06 10:55:20;;;;;;;6.25;4.72;;;;;;;24.60;31.85;95754.28;6041641;23;20703;-81
2023/06/06 10:58:15;;;;;;;5.80;4.40;;;;;;;23.52;33.71;95752.56;6038229;23;20157;-80
2023/06/06 11:00:43;;;;;;;7.72;4.50;;;;;;;23.98;34.58;95751.94;6025762;23;20158;-79
2023/06/06 11:03:13;;;;;;;6.90;4.43;;;;;;;24.01;34.23;95752.28;6013628;23;20178;-81
2023/06/06 11:06:00;;;;;;;7.32;4.15;;;;;;;23.69;34.57;95748.28;6013406;23;20162;-80
2023/06/06 11:08:36;;;;;;;5.32;4.28;;;;;;;24.20;34.13;95744.25;6037807;23;20168;-81
2023/06/06 11:11:21;;;;;;;6.82;4.20;;;;;;;23.68;33.26;95736.88;6018396;23;20200;-80
2023/06/06 11:13:56;;;;;;;3.90;3.60;;;;;;;23.36;34.21;95740.72;6016289;23;20257;-80
2023/06/06 11:16:40;;;;;;;4.38;3.58;;;;;;;23.99;35.41;95737.66;6013634;23;20202;-81
2023/06/06 11:19:14;;;;;;;5.18;4.20;;;;;;;24.09;33.19;95748.50;6114596;23;20160;-81
2023/06/06 11:21:43;;;;;;;4.68;4.10;;;;;;;24.22;32.61;95742.22;6130598;23;20234;-79
2023/06/06 11:24:09;;;;;;;6.00;4.15;;;;;;;24.37;33.14;95737.28;6105430;23;20175;-80
2023/06/06 11:26:41;;;;;;;4.47;4.00;;;;;;;25.28;32.36;95735.09;6159860;23;20178;-83
2023/06/06 11:29:08;;;;;;;5.22;4.30;;;;;;;24.94;32.43;95734.06;6142154;23;20541;-82
2023/06/06 11:31:35;;;;;;;5.30;4.13;;;;;;;24.73;31.78;95732.78;6132204;23;20175;-81
2023/06/06 11:34:09;;;;;;;4.90;3.78;;;;;;;25.85;31.07;95730.59;6131402;23;20190;-81